Euro IV — IQNH — position and weather

sailwx.info

Track history (hours):
 
Tides and Currents Weather Stations Pressure Air Temp Water Temp Dewpoint Dewpoint Depression Visibility Wind Speed Wind Dir Waves Ship Positions

Euro IV

Last reported at 2018-May-19 14:15 UTC. Time now 2018-May-21 05:25 UTC.
Position N 44°06' E 009°50'.

Length 25 m; draft 1.3 m.

Type: Passenger vessel. MMSI: 247131500.

Date/timePositionNaut miles runAvg speedWind from/ knotsBaromVisibWave heightAir tempDewpointWater temp
2018-May-19 14:15N 44°06' E 009°50'311.5
2018-May-19 14:00N 44°04' E 009°51'2 3.1
2018-May-19 13:30N 44°02' E 009°51'1 2.3
2018-May-19 13:00N 44°03' E 009°50'3 6.4
2018-May-19 12:30N 44°05' E 009°54'0 0.5
2018-May-19 12:00N 44°04' E 009°55'0 0.0
2018-May-19 11:30N 44°04' E 009°55'2 4.7
2018-May-19 11:00N 44°03' E 009°52'1 2.2
2018-May-19 10:30N 44°03' E 009°50'0 0.0
2018-May-19 10:00N 44°03' E 009°50'2 3.4
2018-May-19 09:30N 44°05' E 009°51'2 3.4
2018-May-19 09:00N 44°06' E 009°50'0 0.0
2018-May-19 08:30N 44°06' E 009°50'0 0.0
2018-May-19 08:00N 44°06' E 009°50'0 0.0
2018-May-19 07:30N 44°06' E 009°50'0 0.0
2018-May-19 07:00N 44°06' E 009°50'0 0.0
2018-May-19 06:30N 44°06' E 009°50'0 0.0
2018-May-18 16:26N 44°06' E 009°50'3 8.1
2018-May-18 16:01N 44°05' E 009°54'3 6.0
2018-May-18 15:30N 44°03' E 009°50'0 0.1
2018-May-18 15:00N 44°03' E 009°50'3 6.3
2018-May-18 14:30N 44°06' E 009°50'510.3
2018-May-18 14:00N 44°01' E 009°53'4 7.9
2018-May-18 13:30N 44°05' E 009°50'1 1.7
2018-May-18 13:00N 44°06' E 009°50'4 8.9
2018-May-18 12:30N 44°02' E 009°53'5 9.6
2018-May-18 12:00N 44°06' E 009°50'0 0.1
2018-May-18 11:30N 44°06' E 009°50'0 0.0
2018-May-18 11:00N 44°06' E 009°50'0 0.0
2018-May-18 10:30N 44°06' E 009°50'0 0.0
2018-May-18 10:00N 44°06' E 009°50'2 3.0
2018-May-18 09:30N 44°05' E 009°51'3 6.7
2018-May-18 09:00N 44°02' E 009°52'5 9.4
2018-May-18 08:30N 44°06' E 009°50'0 0.2
2018-May-18 08:00N 44°06' E 009°50'0 0.0
2018-May-18 07:30N 44°06' E 009°50'0 0.0
2018-May-18 07:00N 44°06' E 009°50'0 0.0
2018-May-17 16:00N 44°06' E 009°50'4 8.1
2018-May-17 15:30N 44°04' E 009°55'0 0.4
2018-May-17 15:00N 44°05' E 009°54'0 0.3
2018-May-17 14:31N 44°05' E 009°54'0 0.0
2018-May-17 14:00N 44°05' E 009°54'3 5.2
2018-May-17 13:30N 44°03' E 009°51'3 5.1
2018-May-17 13:01N 44°05' E 009°54'0 0.0
2018-May-17 12:30N 44°05' E 009°54'4 7.6
2018-May-17 12:00N 44°06' E 009°50'0 0.0
2018-May-17 11:30N 44°06' E 009°50'0 0.0
2018-May-17 11:00N 44°06' E 009°50'0 0.0
2018-May-17 10:30N 44°06' E 009°50'0 0.0
2018-May-17 10:00N 44°06' E 009°50'0 0.0
2018-May-17 09:30N 44°06' E 009°50'0 0.0
2018-May-17 09:00N 44°06' E 009°50'0 0.5
2018-May-17 08:30N 44°06' E 009°50'0 0.0
2018-May-16 14:09N 44°06' E 009°50'0 1.8
2018-May-16 14:00N 44°06' E 009°50'0 0.0
2018-May-16 13:30N 44°06' E 009°50'2 3.9
2018-May-16 13:01N 44°05' E 009°51'1 2.9
2018-May-16 12:30N 44°03' E 009°51'3 6.3
2018-May-16 12:00N 44°06' E 009°50'0 0.0
2018-May-16 11:30N 44°06' E 009°50'0 0.0
2018-May-16 11:00N 44°06' E 009°50'0 0.0
2018-May-16 10:30N 44°06' E 009°50'3 5.7
2018-May-16 10:00N 44°04' E 009°51'2 4.9
2018-May-16 09:30N 44°04' E 009°55'4 7.1
2018-May-16 09:00N 44°06' E 009°50'0 0.0
2018-May-16 08:30N 44°06' E 009°50'0 0.9
2018-May-16 08:00N 44°06' E 009°50'0 0.0
2018-May-16 07:30N 44°06' E 009°50'0 0.6
2018-May-16 07:00N 44°06' E 009°50'0 0.0
2018-May-14 09:04N 44°06' E 009°50'0 0.0
2018-May-14 09:00N 44°06' E 009°50'4 7.9
2018-May-14 08:30N 44°02' E 009°51'2 4.6
2018-May-14 08:00N 44°05' E 009°51'2 3.3
2018-May-14 07:30N 44°06' E 009°50'0 0.0
2018-May-14 06:59N 44°06' E 009°50'0 0.0
2018-May-13 16:15N 44°06' E 009°50'2 7.8
2018-May-13 16:00N 44°05' E 009°52'2 3.6
2018-May-13 15:30N 44°03' E 009°51'1 1.6
2018-May-13 15:00N 44°03' E 009°50'0 0.0
2018-May-13 14:30N 44°03' E 009°50'0 0.0
2018-May-13 14:00N 44°03' E 009°50'1 2.4
2018-May-13 13:31N 44°03' E 009°49'4 7.7
2018-May-13 12:58N 44°06' E 009°44'3 5.7
2018-May-13 12:24N 44°08' E 009°41'410.0
2018-May-13 12:00N 44°05' E 009°44'5 9.0
2018-May-13 11:31N 44°03' E 009°50'0 0.0
2018-May-13 11:00N 44°03' E 009°50'0 0.0
2018-May-13 10:31N 44°03' E 009°50'0 0.0
2018-May-13 10:01N 44°03' E 009°50'0 0.0
2018-May-13 09:30N 44°03' E 009°50'0 0.0
2018-May-13 09:01N 44°03' E 009°50'0 0.9
2018-May-13 08:30N 44°03' E 009°51'3 6.9
2018-May-13 08:01N 44°06' E 009°50'0 0.1
2018-May-13 07:31N 44°06' E 009°50'0 0.0
2018-May-13 07:01N 44°06' E 009°50'0 0.0
2018-May-12 17:02N 44°06' E 009°50'0 0.2
2018-May-12 17:00N 44°06' E 009°50'3 6.4
2018-May-12 16:30N 44°03' E 009°49'918.1
2018-May-12 16:00N 44°09' E 009°39'3 6.8
2018-May-12 15:31N 44°06' E 009°42'612.7
2018-May-12 15:00N 44°03' E 009°50'0 0.0
2018-May-12 14:30N 44°03' E 009°50'1 2.5
2018-May-12 14:00N 44°04' E 009°51'2 4.6
2018-May-12 13:30N 44°06' E 009°50'0 0.0
2018-May-12 13:00N 44°06' E 009°50'0 0.0
2018-May-12 12:30N 44°06' E 009°50'0 0.0
2018-May-12 12:00N 44°06' E 009°50'0 0.7
2018-May-12 11:30N 44°06' E 009°50'3 6.8
2018-May-12 11:00N 44°04' E 009°47'714.6
2018-May-12 10:30N 44°09' E 009°39'0 0.3
2018-May-12 10:00N 44°09' E 009°39'1 1.4
2018-May-12 09:10N 44°08' E 009°41'0 0.1
2018-May-12 08:59N 44°08' E 009°41'0 0.7
2018-May-12 08:30N 44°08' E 009°41'0 0.6
2018-May-12 07:49N 44°08' E 009°41'515.2
2018-May-12 07:30N 44°04' E 009°45'4 7.7
2018-May-12 07:00N 44°06' E 009°50'1 1.3
2018-May-12 06:30N 44°06' E 009°50'0 0.0
2018-May-12 06:00N 44°06' E 009°50'0 0.0
2018-May-11 15:16N 44°06' E 009°50'2 6.5
2018-May-11 15:00N 44°05' E 009°52'2 3.5
2018-May-11 14:30N 44°03' E 009°52'1 2.1
2018-May-11 14:00N 44°03' E 009°50'2 3.8
2018-May-11 13:30N 44°01' E 009°51'2 3.9
2018-May-11 13:00N 44°03' E 009°50'0 0.0
2018-May-11 12:31N 44°03' E 009°50'0 0.0
2018-May-11 12:01N 44°03' E 009°50'0 0.0
2018-May-11 11:30N 44°03' E 009°50'0 0.0
2018-May-11 11:01N 44°03' E 009°50'1 1.7
2018-May-11 10:30N 44°02' E 009°50'1 1.7
2018-May-11 10:01N 44°03' E 009°50'3 6.8
2018-May-11 09:30N 44°04' E 009°55'0 0.0
2018-May-11 09:01N 44°04' E 009°55'3 6.2
2018-May-11 08:30N 44°03' E 009°51'0 0.9
2018-May-11 08:00N 44°03' E 009°50'3 6.9
2018-May-11 07:31N 44°04' E 009°55'3 6.1
2018-May-11 07:00N 44°06' E 009°51'  
Track history (hours):
 
Tides and Currents Weather Stations Pressure Air Temp Water Temp Dewpoint Dewpoint Depression Visibility Wind Speed Wind Dir Waves Ship Positions

Euro IV

Last reported at 2018-May-19 14:15 UTC. Time now 2018-May-21 05:25 UTC.
Position N 44°06' E 009°50'.

Length 25 m; draft 1.3 m.

Type: Passenger vessel. MMSI: 247131500.

Date/timePositionNaut miles runAvg speedWind from/ knotsBaromVisibWave heightAir tempDewpointWater temp
2018-May-19 14:15N 44°06' E 009°50'311.5
2018-May-19 14:00N 44°04' E 009°51'2 3.1
2018-May-19 13:30N 44°02' E 009°51'1 2.3
2018-May-19 13:00N 44°03' E 009°50'3 6.4
2018-May-19 12:30N 44°05' E 009°54'0 0.5
2018-May-19 12:00N 44°04' E 009°55'0 0.0
2018-May-19 11:30N 44°04' E 009°55'2 4.7
2018-May-19 11:00N 44°03' E 009°52'1 2.2
2018-May-19 10:30N 44°03' E 009°50'0 0.0
2018-May-19 10:00N 44°03' E 009°50'2 3.4
2018-May-19 09:30N 44°05' E 009°51'2 3.4
2018-May-19 09:00N 44°06' E 009°50'0 0.0
2018-May-19 08:30N 44°06' E 009°50'0 0.0
2018-May-19 08:00N 44°06' E 009°50'0 0.0
2018-May-19 07:30N 44°06' E 009°50'0 0.0
2018-May-19 07:00N 44°06' E 009°50'0 0.0
2018-May-19 06:30N 44°06' E 009°50'0 0.0
2018-May-18 16:26N 44°06' E 009°50'3 8.1
2018-May-18 16:01N 44°05' E 009°54'3 6.0
2018-May-18 15:30N 44°03' E 009°50'0 0.1
2018-May-18 15:00N 44°03' E 009°50'3 6.3
2018-May-18 14:30N 44°06' E 009°50'510.3
2018-May-18 14:00N 44°01' E 009°53'4 7.9
2018-May-18 13:30N 44°05' E 009°50'1 1.7
2018-May-18 13:00N 44°06' E 009°50'4 8.9
2018-May-18 12:30N 44°02' E 009°53'5 9.6
2018-May-18 12:00N 44°06' E 009°50'0 0.1
2018-May-18 11:30N 44°06' E 009°50'0 0.0
2018-May-18 11:00N 44°06' E 009°50'0 0.0
2018-May-18 10:30N 44°06' E 009°50'0 0.0
2018-May-18 10:00N 44°06' E 009°50'2 3.0
2018-May-18 09:30N 44°05' E 009°51'3 6.7
2018-May-18 09:00N 44°02' E 009°52'5 9.4
2018-May-18 08:30N 44°06' E 009°50'0 0.2
2018-May-18 08:00N 44°06' E 009°50'0 0.0
2018-May-18 07:30N 44°06' E 009°50'0 0.0
2018-May-18 07:00N 44°06' E 009°50'0 0.0
2018-May-17 16:00N 44°06' E 009°50'4 8.1
2018-May-17 15:30N 44°04' E 009°55'0 0.4
2018-May-17 15:00N 44°05' E 009°54'0 0.3
2018-May-17 14:31N 44°05' E 009°54'0 0.0
2018-May-17 14:00N 44°05' E 009°54'3 5.2
2018-May-17 13:30N 44°03' E 009°51'3 5.1
2018-May-17 13:01N 44°05' E 009°54'0 0.0
2018-May-17 12:30N 44°05' E 009°54'4 7.6
2018-May-17 12:00N 44°06' E 009°50'0 0.0
2018-May-17 11:30N 44°06' E 009°50'0 0.0
2018-May-17 11:00N 44°06' E 009°50'0 0.0
2018-May-17 10:30N 44°06' E 009°50'0 0.0
2018-May-17 10:00N 44°06' E 009°50'0 0.0
2018-May-17 09:30N 44°06' E 009°50'0 0.0
2018-May-17 09:00N 44°06' E 009°50'0 0.5
2018-May-17 08:30N 44°06' E 009°50'0 0.0
2018-May-16 14:09N 44°06' E 009°50'0 1.8
2018-May-16 14:00N 44°06' E 009°50'0 0.0
2018-May-16 13:30N 44°06' E 009°50'2 3.9
2018-May-16 13:01N 44°05' E 009°51'1 2.9
2018-May-16 12:30N 44°03' E 009°51'3 6.3
2018-May-16 12:00N 44°06' E 009°50'0 0.0
2018-May-16 11:30N 44°06' E 009°50'0 0.0
2018-May-16 11:00N 44°06' E 009°50'0 0.0
2018-May-16 10:30N 44°06' E 009°50'3 5.7
2018-May-16 10:00N 44°04' E 009°51'2 4.9
2018-May-16 09:30N 44°04' E 009°55'4 7.1
2018-May-16 09:00N 44°06' E 009°50'0 0.0
2018-May-16 08:30N 44°06' E 009°50'0 0.9
2018-May-16 08:00N 44°06' E 009°50'0 0.0
2018-May-16 07:30N 44°06' E 009°50'0 0.6
2018-May-16 07:00N 44°06' E 009°50'0 0.0
2018-May-14 09:04N 44°06' E 009°50'0 0.0
2018-May-14 09:00N 44°06' E 009°50'4 7.9
2018-May-14 08:30N 44°02' E 009°51'2 4.6
2018-May-14 08:00N 44°05' E 009°51'2 3.3
2018-May-14 07:30N 44°06' E 009°50'0 0.0
2018-May-14 06:59N 44°06' E 009°50'0 0.0
2018-May-13 16:15N 44°06' E 009°50'2 7.8
2018-May-13 16:00N 44°05' E 009°52'2 3.6
2018-May-13 15:30N 44°03' E 009°51'1 1.6
2018-May-13 15:00N 44°03' E 009°50'0 0.0
2018-May-13 14:30N 44°03' E 009°50'0 0.0
2018-May-13 14:00N 44°03' E 009°50'1 2.4
2018-May-13 13:31N 44°03' E 009°49'4 7.7
2018-May-13 12:58N 44°06' E 009°44'3 5.7
2018-May-13 12:24N 44°08' E 009°41'410.0
2018-May-13 12:00N 44°05' E 009°44'5 9.0
2018-May-13 11:31N 44°03' E 009°50'0 0.0
2018-May-13 11:00N 44°03' E 009°50'0 0.0
2018-May-13 10:31N 44°03' E 009°50'0 0.0
2018-May-13 10:01N 44°03' E 009°50'0 0.0
2018-May-13 09:30N 44°03' E 009°50'0 0.0
2018-May-13 09:01N 44°03' E 009°50'0 0.9
2018-May-13 08:30N 44°03' E 009°51'3 6.9
2018-May-13 08:01N 44°06' E 009°50'0 0.1
2018-May-13 07:31N 44°06' E 009°50'0 0.0
2018-May-13 07:01N 44°06' E 009°50'0 0.0
2018-May-12 17:02N 44°06' E 009°50'0 0.2
2018-May-12 17:00N 44°06' E 009°50'3 6.4
2018-May-12 16:30N 44°03' E 009°49'918.1
2018-May-12 16:00N 44°09' E 009°39'3 6.8
2018-May-12 15:31N 44°06' E 009°42'612.7
2018-May-12 15:00N 44°03' E 009°50'0 0.0
2018-May-12 14:30N 44°03' E 009°50'1 2.5
2018-May-12 14:00N 44°04' E 009°51'2 4.6
2018-May-12 13:30N 44°06' E 009°50'0 0.0
2018-May-12 13:00N 44°06' E 009°50'0 0.0
2018-May-12 12:30N 44°06' E 009°50'0 0.0
2018-May-12 12:00N 44°06' E 009°50'0 0.7
2018-May-12 11:30N 44°06' E 009°50'3 6.8
2018-May-12 11:00N 44°04' E 009°47'714.6
2018-May-12 10:30N 44°09' E 009°39'0 0.3
2018-May-12 10:00N 44°09' E 009°39'1 1.4
2018-May-12 09:10N 44°08' E 009°41'0 0.1
2018-May-12 08:59N 44°08' E 009°41'0 0.7
2018-May-12 08:30N 44°08' E 009°41'0 0.6
2018-May-12 07:49N 44°08' E 009°41'515.2
2018-May-12 07:30N 44°04' E 009°45'4 7.7
2018-May-12 07:00N 44°06' E 009°50'1 1.3
2018-May-12 06:30N 44°06' E 009°50'0 0.0
2018-May-12 06:00N 44°06' E 009°50'0 0.0
2018-May-11 15:16N 44°06' E 009°50'2 6.5
2018-May-11 15:00N 44°05' E 009°52'2 3.5
2018-May-11 14:30N 44°03' E 009°52'1 2.1
2018-May-11 14:00N 44°03' E 009°50'2 3.8
2018-May-11 13:30N 44°01' E 009°51'2 3.9
2018-May-11 13:00N 44°03' E 009°50'0 0.0
2018-May-11 12:31N 44°03' E 009°50'0 0.0
2018-May-11 12:01N 44°03' E 009°50'0 0.0
2018-May-11 11:30N 44°03' E 009°50'0 0.0
2018-May-11 11:01N 44°03' E 009°50'1 1.7
2018-May-11 10:30N 44°02' E 009°50'1 1.7
2018-May-11 10:01N 44°03' E 009°50'3 6.8
2018-May-11 09:30N 44°04' E 009°55'0 0.0
2018-May-11 09:01N 44°04' E 009°55'3 6.2
2018-May-11 08:30N 44°03' E 009°51'0 0.9
2018-May-11 08:00N 44°03' E 009°50'3 6.9
2018-May-11 07:31N 44°04' E 009°55'3 6.1
2018-May-11 07:00N 44°06' E 009°51'  

Dump ship's entire track history